Weather at Drop Field [CLOSED]

Public forecast

Using degrees Fahrenheit for public forecast. Weather courtesy of forecast.io.

Closest aviation weather report (METAR) to Drop Field

Closest report is Fort Worth Alliance Airport, 8.4 nm (15.5 km) S. Retrieved 2020/09/30 15:53 UTC (21 minutes ago):

KAFW 301553Z 25008KT 10SM CLR 27/04 A3006 RMK AO2 SLP168 T02670039

Closest aviation forecast (TAF) to Drop Field

Closest forecast is Fort Worth Alliance Airport, 8.4 nm (15.5 km) S. Retrieved 2020/09/30 12:22 UTC (4 hours ago):

TAF KAFW 301120Z 3012/0112 22007KT P6SM SKC FM010900 01008KT P6SM SKC